Time;durP1;ratioP1;P1;durP2;ratioP2;P2;SDS_P1;SDS_P2;PMS_P1;PMS_P2;Temp;Humidity;BMP_temperature;BMP_pressure;BME280_temperature;BME280_humidity;BME280_pressure;Samples;Min_cycle;Max_cycle;Signal;HPM_P1;HPM_P2
2021/11/11 00:01:24;;;;;;;;;;;18.30;99.90;;;;;;5056215;28;20248;-75
2021/11/11 00:03:50;;;;;;;;;;;18.30;99.90;;;;;;5056140;28;20433;-75
2021/11/11 00:06:17;;;;;;;;;;;18.20;99.90;;;;;;5056120;28;20039;-73
2021/11/11 00:08:53;;;;;;;;;;;18.20;99.90;;;;;;5056070;28;19913;-75
2021/11/11 00:11:20;;;;;;;;;;;18.30;99.90;;;;;;5056088;28;20270;-74
2021/11/11 00:13:46;;;;;;;;;;;18.30;99.90;;;;;;5056325;28;19967;-74
2021/11/11 00:16:13;;;;;;;;;;;18.30;99.90;;;;;;5056185;28;19959;-72
2021/11/11 00:18:40;;;;;;;;;;;18.40;99.90;;;;;;5054649;28;19909;-73
2021/11/11 00:21:07;;;;;;;;;;;18.30;99.90;;;;;;5055706;28;19924;-75
2021/11/11 00:23:33;;;;;;;;;;;18.30;99.90;;;;;;5055830;28;20390;-69
2021/11/11 00:26:00;;;;;;;;;;;18.40;99.90;;;;;;5055615;28;19916;-69
2021/11/11 00:28:27;;;;;;;;;;;18.40;99.90;;;;;;5055716;28;19952;-74
2021/11/11 00:30:53;;;;;;;;;;;18.50;99.90;;;;;;5055679;28;19916;-69
2021/11/11 00:33:20;;;;;;;;;;;18.50;99.90;;;;;;5055958;28;19909;-70
2021/11/11 00:35:47;;;;;;;;;;;18.50;99.90;;;;;;5055559;28;19913;-68
2021/11/11 00:38:15;;;;;;;;;;;18.50;99.90;;;;;;5055542;28;19912;-73
2021/11/11 00:40:41;;;;;;;;;;;18.40;99.90;;;;;;5037264;28;20007;-70
2021/11/11 00:43:08;;;;;;;;;;;18.40;99.90;;;;;;5055561;28;20489;-74
2021/11/11 00:45:37;;;;;;;;;;;18.40;99.90;;;;;;5055310;28;19909;-76
2021/11/11 00:48:04;;;;;;;;;;;18.40;99.90;;;;;;5055253;28;20382;-75
2021/11/11 00:50:31;;;;;;;;;;;18.50;99.90;;;;;;5055049;28;19909;-76
2021/11/11 00:52:58;;;;;;;;;;;18.50;99.90;;;;;;5055505;28;19916;-76
2021/11/11 00:55:24;;;;;;;;;;;18.50;99.90;;;;;;5055323;28;19908;-76
2021/11/11 00:57:51;;;;;;;;;;;18.40;99.90;;;;;;5055179;28;20435;-75
2021/11/11 01:00:19;;;;;;;;;;;18.30;99.90;;;;;;5055257;28;19953;-76
2021/11/11 01:04:47;;;;;;;;;;;18.40;99.90;;;;;;5110342;27;19916;-77
2021/11/11 01:07:17;;;;;;;;;;;18.40;99.90;;;;;;5143695;27;20007;-77
2021/11/11 01:09:47;;;;;;;;;;;18.40;99.90;;;;;;5110577;28;19970;-76
2021/11/11 01:12:14;;;;;;;;;;;18.40;99.90;;;;;;5110536;28;19957;-74
2021/11/11 01:14:41;;;;;;;;;;;18.50;99.90;;;;;;5110046;28;19954;-77
2021/11/11 01:17:08;;;;;;;;;;;18.60;99.90;;;;;;5110230;28;19908;-72
2021/11/11 01:19:35;;;;;;;;;;;18.50;99.90;;;;;;5110089;28;19915;-74
2021/11/11 01:22:02;;;;;;;;;;;18.50;99.90;;;;;;5110504;28;19915;-73
2021/11/11 01:24:29;;;;;;;;;;;18.50;99.90;;;;;;5110140;28;20524;-76
2021/11/11 01:26:58;;;;;;;;;;;18.50;99.90;;;;;;5109956;28;19908;-76
2021/11/11 01:29:25;;;;;;;;;;;18.50;99.90;;;;;;5110000;28;20362;-76
2021/11/11 01:31:52;;;;;;;;;;;18.50;99.90;;;;;;5109930;28;19915;-76
2021/11/11 01:34:19;;;;;;;;;;;18.60;99.90;;;;;;5110024;28;19915;-72
2021/11/11 01:36:46;;;;;;;;;;;18.60;99.90;;;;;;5109414;28;19919;-73
2021/11/11 01:39:12;;;;;;;;;;;18.50;99.90;;;;;;5110050;28;19915;-76
2021/11/11 01:41:52;;;;;;;;;;;18.50;99.90;;;;;;5109668;28;20403;-76
2021/11/11 01:44:24;;;;;;;;;;;18.50;99.90;;;;;;5109694;28;20289;-75
2021/11/11 01:46:50;;;;;;;;;;;18.50;99.90;;;;;;5110643;28;20369;-76
2021/11/11 01:49:17;;;;;;;;;;;18.60;99.90;;;;;;5109835;28;19912;-75
2021/11/11 01:51:46;;;;;;;;;;;18.60;99.90;;;;;;5108932;28;19912;-74
2021/11/11 01:54:14;;;;;;;;;;;18.70;99.90;;;;;;5109325;28;19948;-76
2021/11/11 01:57:01;;;;;;;;;;;18.60;99.90;;;;;;5109250;28;20345;-76
2021/11/11 01:59:28;;;;;;;;;;;18.50;99.90;;;;;;5136984;27;19939;-75
2021/11/11 02:02:00;;;;;;;;;;;18.40;99.90;;;;;;5109400;28;19908;-75
2021/11/11 02:04:27;;;;;;;;;;;18.50;99.90;;;;;;5109265;28;20015;-71
2021/11/11 02:06:54;;;;;;;;;;;18.40;99.90;;;;;;5109662;28;19923;-75
2021/11/11 02:09:21;;;;;;;;;;;18.40;99.90;;;;;;5109444;28;19908;-76
2021/11/11 02:12:05;;;;;;;;;;;18.40;99.90;;;;;;5109062;28;19988;-76
2021/11/11 02:14:44;;;;;;;;;;;18.30;99.90;;;;;;5105217;28;19959;-75
2021/11/11 02:17:11;;;;;;;;;;;18.30;99.90;;;;;;5094075;28;19957;-75
2021/11/11 02:19:59;;;;;;;;;;;18.30;99.90;;;;;;5096402;28;19944;-75
2021/11/11 02:22:31;;;;;;;;;;;18.20;99.90;;;;;;5095515;28;19918;-73
2021/11/11 02:24:58;;;;;;;;;;;18.20;99.90;;;;;;5095322;28;19912;-74
2021/11/11 02:27:25;;;;;;;;;;;18.20;99.90;;;;;;5095423;28;20002;-75
2021/11/11 02:29:52;;;;;;;;;;;18.20;99.90;;;;;;5095445;28;19915;-75
2021/11/11 02:32:19;;;;;;;;;;;18.20;99.90;;;;;;5095302;28;19908;-76
2021/11/11 02:34:49;;;;;;;;;;;18.30;99.90;;;;;;5095085;28;20351;-76
2021/11/11 02:37:42;;;;;;;;;;;18.30;99.90;;;;;;5095769;28;19908;-77
2021/11/11 02:40:11;;;;;;;;;;;18.30;99.90;;;;;;5096186;28;19909;-76
2021/11/11 02:42:58;;;;;;;;;;;18.40;99.90;;;;;;5095398;28;19916;-77
2021/11/11 02:45:45;;;;;;;;;;;18.40;99.90;;;;;;5096728;28;19908;-76
2021/11/11 02:48:13;;;;;;;;;;;18.40;99.90;;;;;;5095939;28;20007;-76
2021/11/11 02:50:40;;;;;;;;;;;18.30;99.90;;;;;;5096243;28;19955;-76
2021/11/11 02:53:08;;;;;;;;;;;18.20;99.90;;;;;;5096074;28;20002;-76
2021/11/11 02:55:53;;;;;;;;;;;18.30;99.90;;;;;;5095258;28;19966;-76
2021/11/11 02:58:27;;;;;;;;;;;18.20;99.90;;;;;;5094939;28;19948;-77
2021/11/11 03:00:56;;;;;;;;;;;18.20;99.90;;;;;;5095856;28;19908;-75
2021/11/11 03:03:30;;;;;;;;;;;18.10;99.90;;;;;;5093688;28;20270;-76
2021/11/11 03:05:57;;;;;;;;;;;18.10;99.90;;;;;;5095562;28;20019;-76
2021/11/11 03:08:30;;;;;;;;;;;18.00;99.90;;;;;;5094916;28;19908;-77
2021/11/11 03:10:57;;;;;;;;;;;18.00;99.90;;;;;;5094531;28;20402;-77
2021/11/11 03:13:25;;;;;;;;;;;18.00;99.90;;;;;;5095731;28;19908;-74
2021/11/11 03:15:55;;;;;;;;;;;18.10;99.90;;;;;;5095454;28;19915;-77
2021/11/11 03:18:21;;;;;;;;;;;18.00;99.90;;;;;;5095678;28;19999;-77
2021/11/11 03:20:51;;;;;;;;;;;18.00;99.90;;;;;;5095569;28;19908;-77
2021/11/11 03:23:18;;;;;;;;;;;18.10;99.90;;;;;;5093814;28;19912;-76
2021/11/11 03:25:45;;;;;;;;;;;18.10;99.90;;;;;;5095435;28;19985;-77
2021/11/11 03:28:12;;;;;;;;;;;18.20;99.90;;;;;;5096181;28;19908;-77
2021/11/11 03:30:39;;;;;;;;;;;18.20;99.90;;;;;;5094697;28;19911;-76
2021/11/11 03:33:09;;;;;;;;;;;18.20;99.90;;;;;;5094825;28;20007;-76
2021/11/11 03:35:52;;;;;;;;;;;18.10;99.90;;;;;;5096830;28;19908;-76
2021/11/11 03:38:24;;;;;;;;;;;18.10;99.90;;;;;;5095237;28;19912;-76
2021/11/11 03:40:51;;;;;;;;;;;18.00;99.90;;;;;;5094911;28;19908;-76
2021/11/11 03:43:21;;;;;;;;;;;17.90;99.90;;;;;;5094497;28;20283;-76
2021/11/11 03:45:48;;;;;;;;;;;17.90;99.90;;;;;;5094501;28;20377;-74
2021/11/11 03:48:28;;;;;;;;;;;17.90;99.90;;;;;;5095182;28;20000;-75
2021/11/11 03:50:57;;;;;;;;;;;17.90;99.90;;;;;;5096182;28;20366;-75
2021/11/11 03:53:24;;;;;;;;;;;17.80;99.90;;;;;;5101628;22;19961;-76
2021/11/11 03:55:51;;;;;;;;;;;17.70;99.90;;;;;;5095752;28;19931;-73
2021/11/11 03:58:26;;;;;;;;;;;17.80;99.90;;;;;;5094987;28;20053;-74
2021/11/11 04:03:32;;;;;;;;;;;17.60;99.90;;;;;;5096803;28;19912;-77
2021/11/11 04:05:58;;;;;;;;;;;17.50;99.90;;;;;;5098868;28;20370;-75
2021/11/11 04:08:25;;;;;;;;;;;17.50;99.90;;;;;;5098289;28;20362;-70
2021/11/11 04:10:58;;;;;;;;;;;17.50;99.90;;;;;;5096302;28;19908;-67
2021/11/11 04:13:25;;;;;;;;;;;17.40;99.90;;;;;;5095326;28;19908;-75
2021/11/11 04:15:52;;;;;;;;;;;17.30;99.90;;;;;;5075319;22;19925;-77
2021/11/11 04:18:19;;;;;;;;;;;17.20;99.90;;;;;;5057364;28;19963;-71
2021/11/11 04:20:46;;;;;;;;;;;17.10;99.90;;;;;;5056669;28;20252;-71
2021/11/11 04:23:22;;;;;;;;;;;17.00;99.90;;;;;;5057569;28;19939;-72
2021/11/11 04:25:59;;;;;;;;;;;17.00;99.90;;;;;;5060989;28;20005;-71
2021/11/11 04:28:34;;;;;;;;;;;16.80;99.90;;;;;;5059499;28;19916;-74
2021/11/11 04:31:15;;;;;;;;;;;16.90;99.90;;;;;;5053504;28;19955;-70
2021/11/11 04:33:52;;;;;;;;;;;;;;;;;;;;;
2021/11/11 04:40:12;;;;;;;;;;;16.60;99.90;;;;;;5052588;28;19915;-77
2021/11/11 04:47:38;;;;;;;;;;;16.50;99.90;;;;;;5052708;28;20382;-70
2021/11/11 05:03:39;;;;;;;;;;;16.60;99.90;;;;;;5052362;28;20382;-74
2021/11/11 05:06:06;;;;;;;;;;;16.60;99.90;;;;;;5052334;28;20351;-66
2021/11/11 05:08:33;;;;;;;;;;;16.60;99.90;;;;;;5052093;28;19909;-73
2021/11/11 05:11:01;;;;;;;;;;;16.70;99.90;;;;;;5051957;28;20328;-73
2021/11/11 05:13:28;;;;;;;;;;;16.80;99.90;;;;;;5052471;28;19995;-67
2021/11/11 05:15:55;;;;;;;;;;;16.80;99.90;;;;;;5052099;28;19939;-69
2021/11/11 05:18:22;;;;;;;;;;;16.80;99.90;;;;;;5052401;28;19999;-73
2021/11/11 05:20:49;;;;;;;;;;;16.80;99.90;;;;;;5051181;28;19916;-75
2021/11/11 05:23:27;;;;;;;;;;;16.80;99.90;;;;;;5052327;28;19921;-76
2021/11/11 05:25:55;;;;;;;;;;;16.80;99.90;;;;;;5034388;28;19956;-73
2021/11/11 05:28:22;;;;;;;;;;;16.80;99.90;;;;;;5052644;28;19909;-69
2021/11/11 05:30:57;;;;;;;;;;;16.80;99.90;;;;;;5052309;28;20359;-72
2021/11/11 05:33:24;;;;;;;;;;;16.80;99.90;;;;;;5052647;28;19943;-75
2021/11/11 05:35:54;;;;;;;;;;;16.80;99.90;;;;;;5052372;28;19916;-71
2021/11/11 05:38:29;;;;;;;;;;;16.80;99.90;;;;;;5052406;28;19916;-73
2021/11/11 05:40:56;;;;;;;;;;;16.70;99.90;;;;;;5052471;28;19963;-76
2021/11/11 05:43:31;;;;;;;;;;;16.70;99.90;;;;;;5052209;28;19917;-66
2021/11/11 05:46:07;;;;;;;;;;;16.60;99.90;;;;;;5052168;28;19913;-70
2021/11/11 05:48:34;;;;;;;;;;;16.60;99.90;;;;;;5051560;28;20002;-78
2021/11/11 05:51:00;;;;;;;;;;;16.50;99.90;;;;;;5054906;28;20003;-78
2021/11/11 05:53:33;;;;;;;;;;;16.50;99.90;;;;;;5055155;28;20011;-77
2021/11/11 05:56:03;;;;;;;;;;;16.50;99.90;;;;;;5053557;28;20023;-76
2021/11/11 05:58:29;;;;;;;;;;;16.50;99.90;;;;;;5053553;28;19953;-68
2021/11/11 06:01:02;;;;;;;;;;;16.50;99.90;;;;;;5054471;28;19974;-77
2021/11/11 06:03:35;;;;;;;;;;;16.50;99.90;;;;;;5055179;28;20031;-77
2021/11/11 06:06:28;;;;;;;;;;;16.40;99.90;;;;;;5055586;28;19931;-75
2021/11/11 06:08:55;;;;;;;;;;;16.40;99.90;;;;;;5051062;28;20292;-67
2021/11/11 06:11:22;;;;;;;;;;;16.40;99.90;;;;;;5053447;28;19912;-69
2021/11/11 06:13:58;;;;;;;;;;;16.40;99.90;;;;;;5053383;28;19913;-69
2021/11/11 06:16:25;;;;;;;;;;;16.40;99.90;;;;;;5053501;28;20283;-76
2021/11/11 06:18:51;;;;;;;;;;;16.40;99.90;;;;;;5053275;28;20004;-69
2021/11/11 06:21:24;;;;;;;;;;;16.40;99.90;;;;;;5053436;28;19916;-69
2021/11/11 06:23:52;;;;;;;;;;;16.40;99.90;;;;;;5052820;28;19925;-74
2021/11/11 06:26:20;;;;;;;;;;;16.50;99.90;;;;;;5041696;28;19909;-73
2021/11/11 06:28:46;;;;;;;;;;;16.50;99.90;;;;;;5032859;28;20364;-72
2021/11/11 06:31:13;;;;;;;;;;;16.50;99.90;;;;;;5033165;28;20364;-70
2021/11/11 06:33:40;;;;;;;;;;;16.50;99.90;;;;;;5032895;28;20007;-72
2021/11/11 06:36:13;;;;;;;;;;;16.60;99.90;;;;;;5032955;28;19916;-77
2021/11/11 06:38:49;;;;;;;;;;;16.60;99.90;;;;;;5014898;28;19963;-72
2021/11/11 06:41:16;;;;;;;;;;;16.60;99.90;;;;;;5033521;28;20050;-67
2021/11/11 06:43:53;;;;;;;;;;;16.60;99.90;;;;;;5032818;28;19944;-73
2021/11/11 06:46:20;;;;;;;;;;;16.50;99.90;;;;;;5033210;28;19920;-75
2021/11/11 06:48:55;;;;;;;;;;;16.70;99.90;;;;;;5032190;28;19956;-73
2021/11/11 06:51:28;;;;;;;;;;;16.70;99.90;;;;;;5032419;28;19932;-68
2021/11/11 06:53:58;;;;;;;;;;;16.60;99.90;;;;;;5032697;28;19917;-72
2021/11/11 06:56:37;;;;;;;;;;;;;;;;;;;;;
2021/11/11 06:59:05;;;;;;;;;;;16.60;99.90;;;;;;5032655;28;19909;-76
2021/11/11 07:04:25;;;;;;;;;;;16.70;99.90;;;;;;5023603;28;20330;-72
2021/11/11 07:06:54;;;;;;;;;;;16.70;99.90;;;;;;5032559;28;19956;-70
2021/11/11 07:09:34;;;;;;;;;;;16.70;99.90;;;;;;5032053;28;19993;-77
2021/11/11 07:12:01;;;;;;;;;;;16.80;99.90;;;;;;5121368;22;20057;-75
2021/11/11 07:14:27;;;;;;;;;;;16.70;99.90;;;;;;5071603;28;20334;-77
2021/11/11 07:16:54;;;;;;;;;;;16.70;99.90;;;;;;5072455;28;19924;-76
2021/11/11 07:19:32;;;;;;;;;;;16.60;99.90;;;;;;5072125;28;19913;-77
2021/11/11 07:21:59;;;;;;;;;;;16.80;99.90;;;;;;5072207;28;19908;-70
2021/11/11 07:24:26;;;;;;;;;;;16.80;99.90;;;;;;5071635;28;19924;-76
2021/11/11 07:26:53;;;;;;;;;;;16.80;99.90;;;;;;5069242;28;19908;-77
2021/11/11 07:29:21;;;;;;;;;;;16.90;99.90;;;;;;5071697;28;19931;-77
2021/11/11 07:31:54;;;;;;;;;;;16.90;99.90;;;;;;5086763;28;20003;-74
2021/11/11 07:34:21;;;;;;;;;;;16.80;99.90;;;;;;5071857;28;19913;-77
2021/11/11 07:36:57;;;;;;;;;;;16.80;99.90;;;;;;5071938;28;19919;-72
2021/11/11 07:39:25;;;;;;;;;;;16.80;99.90;;;;;;5071923;28;19950;-76
2021/11/11 07:41:52;;;;;;;;;;;16.90;99.90;;;;;;5072172;28;20364;-74
2021/11/11 07:44:30;;;;;;;;;;;16.90;99.90;;;;;;5070500;28;19920;-73
2021/11/11 07:47:05;;;;;;;;;;;16.90;99.90;;;;;;5071971;28;19908;-76
2021/11/11 07:49:31;;;;;;;;;;;16.80;99.90;;;;;;5072292;28;19934;-74
2021/11/11 07:52:10;;;;;;;;;;;16.80;99.90;;;;;;5077956;28;19908;-75
2021/11/11 07:54:47;;;;;;;;;;;16.80;99.90;;;;;;5091180;28;19919;-72
2021/11/11 07:57:15;;;;;;;;;;;16.80;99.90;;;;;;5075651;28;19965;-74
2021/11/11 07:59:54;;;;;;;;;;;16.80;99.90;;;;;;5070771;28;19915;-77
2021/11/11 08:02:21;;;;;;;;;;;16.80;99.90;;;;;;5071417;28;19909;-77
2021/11/11 08:04:52;;;;;;;;;;;16.80;99.90;;;;;;5071507;28;19917;-73
2021/11/11 08:07:29;;;;;;;;;;;16.90;99.90;;;;;;5073701;28;19991;-76
2021/11/11 08:09:56;;;;;;;;;;;16.80;99.90;;;;;;5075003;22;19928;-75
2021/11/11 08:12:22;;;;;;;;;;;16.80;99.90;;;;;;5052613;28;19962;-77
2021/11/11 08:14:50;;;;;;;;;;;16.70;99.90;;;;;;5052624;28;20335;-77
2021/11/11 08:17:18;;;;;;;;;;;16.60;99.90;;;;;;5053022;28;19909;-78
2021/11/11 08:19:45;;;;;;;;;;;16.40;99.90;;;;;;5053043;28;20391;-76
2021/11/11 08:22:12;;;;;;;;;;;16.30;99.90;;;;;;5034955;28;20423;-74
2021/11/11 08:24:43;;;;;;;;;;;16.20;99.90;;;;;;5052604;28;19920;-77
2021/11/11 08:27:11;;;;;;;;;;;16.10;99.90;;;;;;5052976;28;19999;-75
2021/11/11 08:29:38;;;;;;;;;;;16.10;99.90;;;;;;5052249;28;20383;-73
2021/11/11 08:32:05;;;;;;;;;;;16.00;99.90;;;;;;5052801;28;19909;-75
2021/11/11 08:34:32;;;;;;;;;;;16.00;99.90;;;;;;5052464;28;19909;-70
2021/11/11 08:36:58;;;;;;;;;;;16.00;99.90;;;;;;5051989;28;19909;-73
2021/11/11 08:39:25;;;;;;;;;;;15.80;99.90;;;;;;5052474;28;19912;-76
2021/11/11 08:41:52;;;;;;;;;;;15.70;99.90;;;;;;5052568;28;19909;-77
2021/11/11 08:44:20;;;;;;;;;;;15.60;99.90;;;;;;5052759;28;20286;-72
2021/11/11 08:47:00;;;;;;;;;;;15.60;99.90;;;;;;5052901;28;19931;-77
2021/11/11 08:49:31;;;;;;;;;;;15.70;99.90;;;;;;5035224;28;20003;-76
2021/11/11 08:51:58;;;;;;;;;;;15.70;99.90;;;;;;5052943;28;19916;-76
2021/11/11 08:54:33;;;;;;;;;;;15.70;99.90;;;;;;5059267;22;19964;-73
2021/11/11 08:57:04;;;;;;;;;;;15.70;99.90;;;;;;5036222;28;19908;-72
2021/11/11 08:59:31;;;;;;;;;;;15.60;99.90;;;;;;5052581;28;19909;-77
2021/11/11 09:01:57;;;;;;;;;;;15.60;99.90;;;;;;5052160;28;19908;-80
2021/11/11 09:04:24;;;;;;;;;;;15.70;99.90;;;;;;5052462;28;20355;-76
2021/11/11 09:06:59;;;;;;;;;;;15.60;99.90;;;;;;5052812;28;20051;-74
2021/11/11 09:09:26;;;;;;;;;;;15.60;99.90;;;;;;5059400;22;19932;-78
2021/11/11 09:11:54;;;;;;;;;;;15.60;99.90;;;;;;5052574;28;19916;-77
2021/11/11 09:14:21;;;;;;;;;;;15.50;99.90;;;;;;5052295;28;20060;-70
2021/11/11 09:16:48;;;;;;;;;;;15.50;99.90;;;;;;5052284;28;19912;-75
2021/11/11 09:19:29;;;;;;;;;;;15.40;99.90;;;;;;5052275;28;19909;-74
2021/11/11 09:21:56;;;;;;;;;;;15.40;99.90;;;;;;5052478;28;20077;-77
2021/11/11 09:24:23;;;;;;;;;;;15.30;99.90;;;;;;5052466;28;19917;-73
2021/11/11 09:26:49;;;;;;;;;;;15.30;99.90;;;;;;5056233;28;19991;-73
2021/11/11 09:29:16;;;;;;;;;;;15.20;99.90;;;;;;5056350;28;20007;-78
2021/11/11 09:31:43;;;;;;;;;;;15.30;99.90;;;;;;5056356;28;19951;-74
2021/11/11 09:34:20;;;;;;;;;;;15.30;99.90;;;;;;5056323;28;19909;-71
2021/11/11 09:36:56;;;;;;;;;;;15.40;99.90;;;;;;5038789;28;19909;-80
2021/11/11 09:39:26;;;;;;;;;;;15.30;99.90;;;;;;5055665;28;20024;-72
2021/11/11 09:41:58;;;;;;;;;;;15.30;99.90;;;;;;5056075;28;19909;-74
2021/11/11 09:44:34;;;;;;;;;;;15.30;99.90;;;;;;5037365;28;19917;-77
2021/11/11 09:47:10;;;;;;;;;;;15.20;99.90;;;;;;5038104;28;19939;-79
2021/11/11 09:49:37;;;;;;;;;;;15.20;99.90;;;;;;5038905;28;19934;-71
2021/11/11 09:52:14;;;;;;;;;;;15.10;99.90;;;;;;5056018;28;19908;-80
2021/11/11 10:00:37;;;;;;;;;;;15.10;99.90;;;;;;5056068;28;19916;-70
2021/11/11 10:03:05;;;;;;;;;;;15.00;99.90;;;;;;5055770;28;19925;-69
2021/11/11 10:05:35;;;;;;;;;;;15.00;99.90;;;;;;5055868;28;20008;-72
2021/11/11 10:08:22;;;;;;;;;;;15.00;99.90;;;;;;5055676;28;19913;-77
2021/11/11 10:10:49;;;;;;;;;;;15.00;99.90;;;;;;5055630;28;19963;-76
2021/11/11 10:13:17;;;;;;;;;;;15.00;99.90;;;;;;5055600;28;19916;-78
2021/11/11 10:16:00;;;;;;;;;;;14.90;99.90;;;;;;5055690;28;19916;-77
2021/11/11 10:18:53;;;;;;;;;;;15.00;99.90;;;;;;5069090;22;19943;-79
2021/11/11 10:21:40;;;;;;;;;;;15.00;99.90;;;;;;5067820;28;19913;-77
2021/11/11 10:24:30;;;;;;;;;;;14.90;99.90;;;;;;5055188;28;20306;-80
2021/11/11 10:27:02;;;;;;;;;;;14.90;99.90;;;;;;5054905;28;20019;-77
2021/11/11 10:29:40;;;;;;;;;;;14.90;99.90;;;;;;5055047;28;19913;-80
2021/11/11 10:32:27;;;;;;;;;;;14.90;99.90;;;;;;5055331;28;19913;-79
2021/11/11 10:34:59;;;;;;;;;;;14.80;99.90;;;;;;5055224;28;19916;-78
2021/11/11 10:37:27;;;;;;;;;;;14.90;99.90;;;;;;5054689;28;19954;-77
2021/11/11 10:39:56;;;;;;;;;;;14.90;99.90;;;;;;5054880;28;19908;-78
2021/11/11 10:42:24;;;;;;;;;;;15.00;99.90;;;;;;5054330;28;20290;-78
2021/11/11 10:44:53;;;;;;;;;;;14.90;99.90;;;;;;5054753;28;19917;-78
2021/11/11 10:47:31;;;;;;;;;;;14.80;99.90;;;;;;5054792;28;19915;-79
2021/11/11 10:49:59;;;;;;;;;;;14.80;99.90;;;;;;5055070;28;19909;-78
2021/11/11 10:52:53;;;;;;;;;;;;;;;;;;;;;
2021/11/11 10:57:55;;;;;;;;;;;14.80;99.90;;;;;;5131904;22;19929;-76
2021/11/11 11:00:27;;;;;;;;;;;14.70;99.90;;;;;;5093465;28;19912;-75
2021/11/11 11:02:54;;;;;;;;;;;14.70;99.90;;;;;;5094509;28;19962;-79
2021/11/11 11:05:22;;;;;;;;;;;14.70;99.90;;;;;;5094691;28;19911;-78
2021/11/11 11:07:59;;;;;;;;;;;14.70;99.90;;;;;;5094617;28;19932;-76
2021/11/11 11:10:26;;;;;;;;;;;14.70;99.90;;;;;;5094664;28;19931;-78
2021/11/11 11:12:53;;;;;;;;;;;14.70;99.90;;;;;;5094654;28;19915;-74
2021/11/11 11:15:46;;;;;;;;;;;14.70;99.90;;;;;;5095776;28;19919;-76
2021/11/11 11:18:14;;;;;;;;;;;14.60;99.90;;;;;;5093004;28;19909;-69
2021/11/11 11:20:41;;;;;;;;;;;14.60;99.90;;;;;;5094989;28;19913;-69
2021/11/11 11:23:14;;;;;;;;;;;14.60;99.90;;;;;;5094495;28;19920;-71
2021/11/11 11:25:51;;;;;;;;;;;14.70;99.90;;;;;;5094449;28;19912;-69
2021/11/11 11:28:29;;;;;;;;;;;14.70;99.90;;;;;;5094646;28;19908;-68
2021/11/11 11:30:58;;;;;;;;;;;14.70;99.90;;;;;;5094326;28;20358;-75
2021/11/11 11:33:36;;;;;;;;;;;14.60;99.90;;;;;;5094169;28;19930;-69
2021/11/11 11:36:03;;;;;;;;;;;14.60;99.90;;;;;;5093815;28;19953;-77
2021/11/11 11:38:31;;;;;;;;;;;14.60;99.90;;;;;;5094109;28;19961;-73
2021/11/11 11:40:57;;;;;;;;;;;14.60;99.90;;;;;;5094191;28;19912;-78
2021/11/11 11:43:31;;;;;;;;;;;14.60;99.90;;;;;;5093895;28;20415;-78
2021/11/11 11:46:12;;;;;;;;;;;14.60;99.90;;;;;;5093846;28;19908;-78
2021/11/11 11:48:40;;;;;;;;;;;14.60;99.90;;;;;;5092770;28;19908;-74
2021/11/11 11:51:08;;;;;;;;;;;14.60;99.90;;;;;;5093781;28;20350;-77
2021/11/11 11:53:41;;;;;;;;;;;14.60;99.90;;;;;;5093886;28;19930;-76
2021/11/11 11:56:15;;;;;;;;;;;14.60;99.90;;;;;;5093097;28;19939;-71
2021/11/11 11:58:47;;;;;;;;;;;14.60;99.90;;;;;;5093523;28;19908;-71
2021/11/11 12:04:25;;;;;;;;;;;14.40;99.90;;;;;;5069354;28;19947;-78
2021/11/11 12:07:08;;;;;;;;;;;14.20;99.90;;;;;;5093772;28;19908;-79
2021/11/11 12:12:44;;;;;;;;;;;14.00;99.90;;;;;;5093069;28;19912;-77
2021/11/11 12:15:23;;;;;;;;;;;14.00;99.90;;;;;;5093474;28;19920;-73
2021/11/11 12:18:23;;;;;;;;;;;13.90;99.90;;;;;;5093169;28;19908;-76
2021/11/11 12:28:34;;;;;;;;;;;13.60;99.90;;;;;;5093474;28;20011;-78
2021/11/11 12:39:40;;;;;;;;;;;13.10;99.90;;;;;;5093110;28;19992;-74
2021/11/11 12:42:10;;;;;;;;;;;13.10;99.90;;;;;;5092671;28;19908;-73
2021/11/11 12:44:57;;;;;;;;;;;13.00;99.90;;;;;;5092921;28;19916;-70
2021/11/11 12:47:47;;;;;;;;;;;13.00;99.90;;;;;;5093027;28;19948;-66
2021/11/11 12:50:26;;;;;;;;;;;13.00;99.90;;;;;;5085123;28;20215;-68
2021/11/11 12:53:11;;;;;;;;;;;13.00;99.90;;;;;;5093010;28;20109;-70
2021/11/11 12:55:44;;;;;;;;;;;13.00;99.90;;;;;;5092715;28;20003;-70
2021/11/11 12:58:12;;;;;;;;;;;13.00;99.90;;;;;;5092330;28;19924;-66
2021/11/11 13:00:47;;;;;;;;;;;13.00;99.90;;;;;;5092524;28;19961;-74
2021/11/11 13:03:14;;;;;;;;;;;12.90;99.90;;;;;;5092579;28;19920;-74
2021/11/11 13:05:45;;;;;;;;;;;12.90;99.90;;;;;;5092758;28;19915;-73
2021/11/11 13:08:12;;;;;;;;;;;12.90;99.90;;;;;;5092846;28;19915;-74
2021/11/11 13:10:57;;;;;;;;;;;12.80;99.90;;;;;;5092353;28;19940;-72
2021/11/11 13:13:25;;;;;;;;;;;12.90;99.90;;;;;;5092459;28;19909;-72
2021/11/11 13:15:54;;;;;;;;;;;12.80;99.90;;;;;;5092438;28;19947;-75
2021/11/11 13:18:39;;;;;;;;;;;12.80;99.90;;;;;;5092392;28;19912;-72
2021/11/11 13:21:14;;;;;;;;;;;12.80;99.90;;;;;;5092976;28;19908;-69
2021/11/11 13:23:59;;;;;;;;;;;12.80;99.90;;;;;;5092401;28;19995;-68
2021/11/11 13:27:09;;;;;;;;;;;12.80;99.90;;;;;;5092505;28;19909;-67
2021/11/11 14:01:22;;;;;;;;;;;13.00;99.90;;;;;;5092452;28;19981;-68
2021/11/11 16:27:17;;;;;;;;;;;14.00;99.90;;;;;;5093229;28;19909;-72
2021/11/11 16:29:43;;;;;;;;;;;14.00;99.90;;;;;;5093094;28;20266;-71
2021/11/11 16:32:10;;;;;;;;;;;14.00;99.90;;;;;;5093090;28;20026;-70
2021/11/11 16:34:37;;;;;;;;;;;14.10;99.90;;;;;;5092641;28;20034;-71
2021/11/11 16:37:06;;;;;;;;;;;14.20;99.90;;;;;;5093163;28;20049;-73
2021/11/11 16:39:34;;;;;;;;;;;14.20;99.90;;;;;;5092956;28;19913;-73
2021/11/11 16:42:00;;;;;;;;;;;14.20;99.90;;;;;;5092684;28;19918;-73
2021/11/11 16:44:27;;;;;;;;;;;14.20;99.90;;;;;;5092730;28;19939;-76
2021/11/11 16:46:54;;;;;;;;;;;14.20;99.90;;;;;;5093057;28;19912;-76
2021/11/11 16:49:21;;;;;;;;;;;14.20;99.90;;;;;;5092801;28;19928;-73
2021/11/11 16:51:48;;;;;;;;;;;14.30;99.90;;;;;;5092746;28;19955;-70
2021/11/11 16:54:15;;;;;;;;;;;14.20;99.90;;;;;;5092882;28;20007;-71
2021/11/11 16:56:42;;;;;;;;;;;14.20;99.90;;;;;;5092664;28;20000;-70
2021/11/11 16:59:08;;;;;;;;;;;14.20;99.90;;;;;;5092802;28;19970;-72
2021/11/11 17:01:36;;;;;;;;;;;14.20;99.90;;;;;;5092754;28;19914;-71
2021/11/11 17:04:03;;;;;;;;;;;14.20;99.90;;;;;;5092470;28;19923;-70
2021/11/11 17:06:29;;;;;;;;;;;14.20;99.90;;;;;;5092741;28;19908;-72
2021/11/11 17:08:56;;;;;;;;;;;14.20;99.90;;;;;;5092665;28;19915;-74
2021/11/11 17:11:23;;;;;;;;;;;14.30;99.90;;;;;;5092496;28;20037;-71
2021/11/11 17:13:50;;;;;;;;;;;14.30;99.90;;;;;;5092493;28;19954;-68
2021/11/11 17:16:19;;;;;;;;;;;14.30;99.90;;;;;;5092667;28;20397;-69
2021/11/11 17:18:46;;;;;;;;;;;14.30;99.90;;;;;;5092788;28;19908;-70
2021/11/11 17:21:16;;;;;;;;;;;14.20;99.90;;;;;;5092377;28;19915;-73
2021/11/11 17:23:52;;;;;;;;;;;14.30;99.90;;;;;;5092587;28;19924;-74
2021/11/11 17:26:42;;;;;;;;;;;14.30;99.90;;;;;;5092334;28;20251;-71
2021/11/11 17:29:07;;;;;;;;;;;14.20;99.90;;;;;;5092544;28;19956;-73
2021/11/11 17:31:33;;;;;;;;;;;14.30;99.90;;;;;;5092477;28;19912;-73
2021/11/11 17:34:00;;;;;;;;;;;14.30;99.90;;;;;;5092145;28;20450;-70
2021/11/11 17:36:28;;;;;;;;;;;14.30;99.90;;;;;;5092384;28;19909;-77
2021/11/11 17:38:56;;;;;;;;;;;14.30;99.90;;;;;;5092454;28;19961;-75
2021/11/11 17:41:24;;;;;;;;;;;14.40;99.90;;;;;;5092291;28;19999;-72
2021/11/11 17:43:52;;;;;;;;;;;14.50;99.90;;;;;;5092309;28;19920;-73
2021/11/11 17:46:22;;;;;;;;;;;14.60;99.90;;;;;;5094210;28;19994;-77
2021/11/11 17:48:53;;;;;;;;;;;14.60;99.90;;;;;;5096082;28;19915;-77
2021/11/11 17:53:53;;;;;;;;;;;14.70;99.90;;;;;;5096264;28;19955;-66
2021/11/11 17:56:21;;;;;;;;;;;14.70;99.90;;;;;;5095969;28;19930;-65
2021/11/11 17:58:49;;;;;;;;;;;14.70;99.90;;;;;;5096093;28;19912;-71
2021/11/11 18:01:19;;;;;;;;;;;14.60;99.90;;;;;;5095910;28;19919;-70
2021/11/11 18:03:47;;;;;;;;;;;14.60;99.90;;;;;;5095824;28;20412;-74
2021/11/11 18:06:28;;;;;;;;;;;14.50;99.90;;;;;;5095951;28;20259;-72
2021/11/11 18:08:57;;;;;;;;;;;14.50;99.90;;;;;;5095941;28;19960;-72
2021/11/11 18:11:28;;;;;;;;;;;14.50;99.90;;;;;;5095844;28;20277;-70
2021/11/11 18:14:06;;;;;;;;;;;14.50;99.90;;;;;;5095732;28;19914;-74
2021/11/11 18:16:38;;;;;;;;;;;14.50;99.90;;;;;;5095884;28;19912;-72
2021/11/11 18:19:05;;;;;;;;;;;14.50;99.90;;;;;;5095663;28;19943;-68
2021/11/11 18:21:32;;;;;;;;;;;14.40;99.90;;;;;;5095568;28;19915;-73
2021/11/11 18:23:59;;;;;;;;;;;14.40;99.90;;;;;;5095169;28;19916;-69
2021/11/11 18:26:26;;;;;;;;;;;14.40;99.90;;;;;;5095382;28;19923;-70
2021/11/11 18:29:13;;;;;;;;;;;14.50;99.90;;;;;;5095398;28;19912;-72
2021/11/11 18:31:57;;;;;;;;;;;14.50;99.90;;;;;;5095477;28;19908;-68
2021/11/11 18:34:34;;;;;;;;;;;14.40;99.90;;;;;;5095302;28;20323;-73
2021/11/11 18:37:08;;;;;;;;;;;14.40;99.90;;;;;;5095397;28;20293;-71
2021/11/11 18:39:36;;;;;;;;;;;14.40;99.90;;;;;;5095211;28;19990;-66
2021/11/11 18:42:04;;;;;;;;;;;14.30;99.90;;;;;;5095343;28;19908;-72